createdAt,value
2023-05-24T00:00:30.288Z,100723.34
2023-05-24T00:01:01.863Z,100712.47
2023-05-24T00:01:33.375Z,100716.78
2023-05-24T00:02:05.032Z,100717.91
2023-05-24T00:02:36.671Z,100720.84
2023-05-24T00:03:08.387Z,100716.22
2023-05-24T00:03:40.081Z,100722.72
2023-05-24T00:04:11.828Z,100720.84
2023-05-24T00:04:43.434Z,100721.34
2023-05-24T00:05:15.054Z,100720.25
2023-05-24T00:05:46.786Z,100720.25
2023-05-24T00:06:18.481Z,100726.22
2023-05-24T00:06:49.930Z,100723.19
2023-05-24T00:07:21.414Z,100721.84
2023-05-24T00:07:52.891Z,100725.13
2023-05-24T00:08:24.531Z,100718.63
2023-05-24T00:08:56.024Z,100720.53
2023-05-24T00:09:27.504Z,100719.44
2023-05-24T00:09:58.989Z,100724.63
2023-05-24T00:10:30.488Z,100721.34
2023-05-24T00:11:01.992Z,100721.34
2023-05-24T00:11:33.471Z,100725.97
2023-05-24T00:12:04.943Z,100721.34
2023-05-24T00:12:36.430Z,100724.31
2023-05-24T00:13:07.901Z,100718.06
2023-05-24T00:13:39.527Z,100723.50
2023-05-24T00:14:11.066Z,100720.53
2023-05-24T00:14:42.548Z,100722.41
2023-05-24T00:15:14.001Z,100724.56
2023-05-24T00:15:45.619Z,100716.16
2023-05-24T00:16:17.181Z,100714.84
2023-05-24T00:16:48.746Z,100712.69
2023-05-24T00:17:20.365Z,100713.75
2023-05-24T00:17:51.927Z,100726.25
2023-05-24T00:18:23.533Z,100721.13
2023-05-24T00:18:55.158Z,100711.59
2023-05-24T00:19:26.616Z,100714.56
2023-05-24T00:19:58.122Z,100716.41
2023-05-24T00:20:29.620Z,100719.97
2023-05-24T00:21:01.112Z,100721.28
2023-05-24T00:21:32.717Z,100719.13
2023-05-24T00:22:04.230Z,100722.94
2023-05-24T00:22:35.755Z,100720.22
2023-05-24T00:23:07.263Z,100716.41
2023-05-24T00:23:38.730Z,100717.75
2023-05-24T00:24:10.260Z,100721.03
2023-05-24T00:24:41.750Z,100717.50
2023-05-24T00:25:13.269Z,100709.09
2023-05-24T00:25:44.771Z,100712.94
2023-05-24T00:26:16.221Z,100719.97
2023-05-24T00:26:47.862Z,100717.50
2023-05-24T00:27:19.307Z,100711.81
2023-05-24T00:27:50.831Z,100712.94
2023-05-24T00:28:22.279Z,100710.97
2023-05-24T00:28:53.834Z,100713.38
2023-05-24T00:29:25.366Z,100714.25
2023-05-24T00:29:56.887Z,100716.41
2023-05-24T00:30:28.379Z,100711.81
2023-05-24T00:30:59.841Z,100712.13
2023-05-24T00:31:31.392Z,100708.84
2023-05-24T00:32:02.996Z,100712.06
2023-05-24T00:32:34.578Z,100714.22
2023-05-24T00:33:06.163Z,100714.78
2023-05-24T00:33:37.691Z,100715.09
2023-05-24T00:34:09.190Z,100710.47
2023-05-24T00:34:40.644Z,100711.81
2023-05-24T00:35:12.157Z,100720.47
2023-05-24T00:35:43.715Z,100714.78
2023-05-24T00:36:15.262Z,100708.78
2023-05-24T00:36:46.748Z,100710.09
2023-05-24T00:37:18.223Z,100710.38
2023-05-24T00:37:49.720Z,100713.97
2023-05-24T00:38:21.252Z,100714.72
2023-05-24T00:38:52.804Z,100716.09
2023-05-24T00:39:24.239Z,100712.00
2023-05-24T00:39:55.808Z,100710.41
2023-05-24T00:40:27.311Z,100705.81
2023-05-24T00:40:58.824Z,100706.88
2023-05-24T00:41:30.261Z,100705.53
2023-05-24T00:42:01.840Z,100706.69
2023-05-24T00:42:33.389Z,100710.78
2023-05-24T00:43:04.943Z,100700.69
2023-05-24T00:43:36.517Z,100699.34
2023-05-24T00:44:08.046Z,100699.53
2023-05-24T00:44:39.595Z,100699.81
2023-05-24T00:45:11.052Z,100699.84
2023-05-24T00:45:42.544Z,100699.28
2023-05-24T00:46:14.142Z,100703.09
2023-05-24T00:46:45.640Z,100702.47
2023-05-24T00:47:17.113Z,100702.22
2023-05-24T00:47:48.605Z,100702.72
2023-05-24T00:48:20.206Z,100706.06
2023-05-24T00:48:51.722Z,100703.59
2023-05-24T00:49:23.228Z,100698.72
2023-05-24T00:49:54.882Z,100701.97
2023-05-24T00:50:26.467Z,100696.22
2023-05-24T00:50:57.953Z,100696.53
2023-05-24T00:51:29.392Z,100702.53
2023-05-24T00:52:01.002Z,100695.13
2023-05-24T00:52:32.489Z,100700.31
2023-05-24T00:53:03.940Z,100690.53
2023-05-24T00:53:35.523Z,100695.13
2023-05-24T00:54:07.042Z,100688.38
2023-05-24T00:54:38.550Z,100692.72
2023-05-24T00:55:10.073Z,100691.91
2023-05-24T00:55:41.760Z,100698.66
2023-05-24T00:56:13.220Z,100692.69
2023-05-24T00:56:44.713Z,100694.06
2023-05-24T00:57:16.181Z,100691.84
2023-05-24T00:57:47.756Z,100698.09
2023-05-24T00:58:19.223Z,100686.72
2023-05-24T00:58:50.717Z,100686.97
2023-05-24T00:59:22.231Z,100694.56
2023-05-24T00:59:53.747Z,100688.56
2023-05-24T01:00:25.451Z,100701.34
2023-05-24T01:00:56.946Z,100689.97
2023-05-24T01:01:28.486Z,100694.06
2023-05-24T01:02:00.217Z,100694.25
2023-05-24T01:02:32.009Z,100698.09
2023-05-24T01:03:03.622Z,100697.22
2023-05-24T01:03:35.311Z,100699.38
2023-05-24T01:04:06.921Z,100692.34
2023-05-24T01:04:38.500Z,100697.78
2023-05-24T01:05:09.959Z,100695.31
2023-05-24T01:05:41.530Z,100694.22
2023-05-24T01:06:13.047Z,100692.59
2023-05-24T01:06:44.525Z,100696.13
2023-05-24T01:07:15.959Z,100692.06
2023-05-24T01:07:47.524Z,100695.81
2023-05-24T01:08:19.020Z,100695.59
2023-05-24T01:08:50.488Z,100699.09
2023-05-24T01:09:21.950Z,100702.59
2023-05-24T01:09:53.426Z,100693.34
2023-05-24T01:10:24.907Z,100698.03
2023-05-24T01:10:56.449Z,100693.09
2023-05-24T01:11:28.146Z,100699.91
2023-05-24T01:11:59.699Z,100695.81
2023-05-24T01:12:31.187Z,100697.66
2023-05-24T01:13:02.729Z,100695.50
2023-05-24T01:13:34.193Z,100694.13
2023-05-24T01:14:05.677Z,100692.47
2023-05-24T01:14:37.116Z,100701.75
2023-05-24T01:15:08.622Z,100693.88
2023-05-24T01:15:40.123Z,100690.06
2023-05-24T01:16:11.711Z,100696.31
2023-05-24T01:16:43.158Z,100698.72
2023-05-24T01:17:14.605Z,100690.28
2023-05-24T01:17:46.160Z,100695.44
2023-05-24T01:18:17.691Z,100687.31
2023-05-24T01:18:49.188Z,100689.75
2023-05-24T01:19:20.734Z,100688.13
2023-05-24T01:19:52.309Z,100695.44
2023-05-24T01:20:23.857Z,100700.31
2023-05-24T01:20:55.454Z,100699.25
2023-05-24T01:21:26.982Z,100699.50
2023-05-24T01:21:58.545Z,100695.44
2023-05-24T01:22:30.060Z,100697.09
2023-05-24T01:23:01.555Z,100705.25
2023-05-24T01:23:33.013Z,100707.13
2023-05-24T01:24:04.441Z,100704.16
2023-05-24T01:24:35.987Z,100705.75
2023-05-24T01:25:07.538Z,100707.38
2023-05-24T01:25:38.973Z,100705.25
2023-05-24T01:26:10.468Z,100702.78
2023-05-24T01:26:42.008Z,100703.59
2023-05-24T01:27:13.489Z,100703.34
2023-05-24T01:27:45.004Z,100704.41
2023-05-24T01:28:16.471Z,100699.25
2023-05-24T01:28:48.036Z,100698.66
2023-05-24T01:29:19.571Z,100703.03
2023-05-24T01:29:51.088Z,100703.28
2023-05-24T01:30:22.568Z,100699.56
2023-05-24T01:30:54.137Z,100707.13
2023-05-24T01:31:25.748Z,100695.44
2023-05-24T01:31:57.297Z,100691.84
2023-05-24T01:32:28.918Z,100690.78
2023-05-24T01:33:00.539Z,100696.78
2023-05-24T01:33:32.080Z,100688.63
2023-05-24T01:34:03.581Z,100694.88
2023-05-24T01:34:35.039Z,100693.75
2023-05-24T01:35:06.596Z,100687.81
2023-05-24T01:35:38.100Z,100685.09
2023-05-24T01:36:09.593Z,100686.16
2023-05-24T01:36:41.117Z,100692.41
2023-05-24T01:37:12.605Z,100680.41
2023-05-24T01:37:44.064Z,100682.06
2023-05-24T01:38:15.560Z,100685.03
2023-05-24T01:38:47.052Z,100680.41
2023-05-24T01:39:18.580Z,100683.66
2023-05-24T01:39:50.041Z,100680.16
2023-05-24T01:40:21.527Z,100673.34
2023-05-24T01:40:52.988Z,100681.81
2023-05-24T01:41:24.410Z,100676.06
2023-05-24T01:41:56.088Z,100673.66
2023-05-24T01:42:27.612Z,100668.78
2023-05-24T01:42:59.096Z,100677.75
2023-05-24T01:43:30.577Z,100667.66
2023-05-24T01:44:02.043Z,100671.19
2023-05-24T01:44:33.524Z,100663.88
2023-05-24T01:45:05.053Z,100664.75
2023-05-24T01:45:36.553Z,100660.13
2023-05-24T01:46:08.108Z,100661.72
2023-05-24T01:46:39.640Z,100656.84
2023-05-24T01:47:11.222Z,100661.72
2023-05-24T01:47:43.077Z,100662.59
2023-05-24T01:48:14.555Z,100659.31
2023-05-24T01:48:46.197Z,100663.69
2023-05-24T01:49:17.689Z,100659.06
2023-05-24T01:49:49.191Z,100659.81
2023-05-24T01:50:20.706Z,100661.78
2023-05-24T01:50:52.224Z,100662.28
2023-05-24T01:51:23.675Z,100666.09
2023-05-24T01:51:55.330Z,100662.28
2023-05-24T01:52:27.013Z,100669.94
2023-05-24T01:52:58.515Z,100662.03
2023-05-24T01:53:30.027Z,100662.84
2023-05-24T01:54:01.483Z,100662.59
2023-05-24T01:54:32.944Z,100660.13
2023-05-24T01:55:04.520Z,100659.81
2023-05-24T01:55:36.020Z,100663.13
2023-05-24T01:56:07.564Z,100657.13
2023-05-24T01:56:39.024Z,100661.16
2023-05-24T01:57:10.616Z,100659.50
2023-05-24T01:57:42.089Z,100669.31
2023-05-24T01:58:13.596Z,100656.84
2023-05-24T01:58:45.080Z,100661.72
2023-05-24T01:59:16.631Z,100661.97
2023-05-24T01:59:48.189Z,100653.84
2023-05-24T02:00:19.696Z,100655.72
2023-05-24T02:00:51.196Z,100661.72
2023-05-24T02:01:22.840Z,100661.16
2023-05-24T02:01:54.412Z,100653.25
2023-05-24T02:02:26.055Z,100658.38
2023-05-24T02:02:57.633Z,100658.38
2023-05-24T02:03:29.194Z,100654.53
2023-05-24T02:04:00.757Z,100655.91
2023-05-24T02:04:32.226Z,100653.78
2023-05-24T02:05:03.711Z,100659.19
2023-05-24T02:05:35.266Z,100657.00
2023-05-24T02:06:06.819Z,100664.88
2023-05-24T02:06:38.300Z,100647.78
2023-05-24T02:07:09.799Z,100656.75
2023-05-24T02:07:41.274Z,100657.56
2023-05-24T02:08:12.822Z,100662.69
2023-05-24T02:08:44.329Z,100659.72
2023-05-24T02:09:15.891Z,100657.81
2023-05-24T02:09:47.363Z,100655.97
2023-05-24T02:10:18.877Z,100657.06
2023-05-24T02:10:50.353Z,100651.88
2023-05-24T02:11:21.888Z,100652.38
2023-05-24T02:11:53.406Z,100653.47
2023-05-24T02:12:25.074Z,100650.69
2023-05-24T02:12:56.549Z,100653.72
2023-05-24T02:13:28.058Z,100651.50
2023-05-24T02:13:59.479Z,100644.75
2023-05-24T02:14:31.073Z,100652.88
2023-05-24T02:15:02.586Z,100655.91
2023-05-24T02:15:34.106Z,100653.16
2023-05-24T02:16:05.565Z,100646.38
2023-05-24T02:16:37.106Z,100653.47
2023-05-24T02:17:08.564Z,100643.41
2023-05-24T02:17:40.059Z,100648.66
2023-05-24T02:18:11.626Z,100651.31
2023-05-24T02:18:43.105Z,100648.59
2023-05-24T02:19:14.694Z,100648.28
2023-05-24T02:19:46.278Z,100653.16
2023-05-24T02:20:17.828Z,100653.16
2023-05-24T02:20:49.326Z,100650.69
2023-05-24T02:21:20.799Z,100652.31
2023-05-24T02:21:52.296Z,100656.69
2023-05-24T02:22:23.810Z,100648.78
2023-05-24T02:22:55.287Z,100643.94
2023-05-24T02:23:26.903Z,100649.59
2023-05-24T02:23:58.378Z,100642.28
2023-05-24T02:24:29.898Z,100642.28
2023-05-24T02:25:01.398Z,100648.84
2023-05-24T02:25:32.847Z,100645.06
2023-05-24T02:26:04.328Z,100645.31
2023-05-24T02:26:35.816Z,100642.66
2023-05-24T02:27:07.324Z,100641.28
2023-05-24T02:27:38.759Z,100647.72
2023-05-24T02:28:10.309Z,100637.94
2023-05-24T02:28:41.810Z,100639.81
2023-05-24T02:29:13.409Z,100633.81
2023-05-24T02:29:44.911Z,100637.88
2023-05-24T02:30:16.526Z,100634.09
2023-05-24T02:30:48.073Z,100640.91
2023-05-24T02:31:19.599Z,100640.34
2023-05-24T02:31:51.092Z,100642.78
2023-05-24T02:32:22.592Z,100638.44
2023-05-24T02:32:54.232Z,100638.69
2023-05-24T02:33:25.806Z,100634.34
2023-05-24T02:33:57.278Z,100638.69
2023-05-24T02:34:28.744Z,100645.91
2023-05-24T02:35:00.241Z,100642.47
2023-05-24T02:35:31.957Z,100647.91
2023-05-24T02:36:03.469Z,100643.81
2023-05-24T02:36:34.966Z,100641.41
2023-05-24T02:37:06.466Z,100640.84
2023-05-24T02:37:37.940Z,100640.34
2023-05-24T02:38:09.416Z,100641.41
2023-05-24T02:38:40.925Z,100639.50
2023-05-24T02:39:12.349Z,100642.47
2023-05-24T02:39:43.874Z,100644.63
2023-05-24T02:40:15.327Z,100638.94
2023-05-24T02:40:46.900Z,100641.91
2023-05-24T02:41:18.338Z,100638.63
2023-05-24T02:41:49.895Z,100639.66
2023-05-24T02:42:21.362Z,100643.22
2023-05-24T02:42:52.860Z,100642.47
2023-05-24T02:43:24.343Z,100637.88
2023-05-24T02:43:55.814Z,100639.00
2023-05-24T02:44:27.352Z,100637.06
2023-05-24T02:44:58.805Z,100636.78
2023-05-24T02:45:30.291Z,100637.63
2023-05-24T02:46:02.000Z,100639.56
2023-05-24T02:46:33.709Z,100632.44
2023-05-24T02:47:05.328Z,100632.19
2023-05-24T02:47:36.912Z,100636.53
2023-05-24T02:48:08.506Z,100632.94
2023-05-24T02:48:40.100Z,100632.69
2023-05-24T02:49:11.558Z,100636.22
2023-05-24T02:49:43.074Z,100635.41
2023-05-24T02:50:14.531Z,100645.44
2023-05-24T02:50:46.043Z,100632.19
2023-05-24T02:51:17.610Z,100632.69
2023-05-24T02:51:49.179Z,100634.03
2023-05-24T02:52:20.702Z,100644.38
2023-05-24T02:52:52.180Z,100642.63
2023-05-24T02:53:23.691Z,100636.13
2023-05-24T02:53:55.169Z,100639.09
2023-05-24T02:54:26.728Z,100639.66
2023-05-24T02:54:58.149Z,100638.03
2023-05-24T02:55:29.668Z,100643.16
2023-05-24T02:56:01.155Z,100645.03
2023-05-24T02:56:32.722Z,100641.25
2023-05-24T02:57:04.421Z,100633.63
2023-05-24T02:57:35.916Z,100636.66
2023-05-24T02:58:07.383Z,100643.97
2023-05-24T02:58:38.855Z,100644.28
2023-05-24T02:59:10.290Z,100644.28
2023-05-24T02:59:41.786Z,100649.72
2023-05-24T03:00:13.288Z,100639.94
2023-05-24T03:00:44.792Z,100641.00
2023-05-24T03:01:16.300Z,100648.88
2023-05-24T03:01:47.916Z,100653.84
2023-05-24T03:02:19.367Z,100650.53
2023-05-24T03:02:50.954Z,100646.44
2023-05-24T03:03:22.788Z,100643.47
2023-05-24T03:03:54.477Z,100647.25
2023-05-24T03:04:25.981Z,100640.19
2023-05-24T03:04:57.495Z,100647.25
2023-05-24T03:05:28.995Z,100647.25
2023-05-24T03:06:00.507Z,100651.34
2023-05-24T03:06:32.006Z,100651.59
2023-05-24T03:07:03.509Z,100644.88
2023-05-24T03:07:34.998Z,100649.22
2023-05-24T03:08:06.470Z,100643.81
2023-05-24T03:08:37.950Z,100649.22
2023-05-24T03:09:09.428Z,100643.72
2023-05-24T03:09:40.902Z,100645.09
2023-05-24T03:10:14.318Z,100643.81
2023-05-24T03:10:47.187Z,100637.06
2023-05-24T03:11:18.655Z,100647.41
2023-05-24T03:11:50.125Z,100643.03
2023-05-24T03:12:21.678Z,100640.03
2023-05-24T03:12:53.256Z,100642.47
2023-05-24T03:13:24.720Z,100639.81
2023-05-24T03:13:56.178Z,100651.50
2023-05-24T03:14:27.696Z,100646.66
2023-05-24T03:14:59.140Z,100644.94
2023-05-24T03:15:30.674Z,100644.75
2023-05-24T03:16:02.224Z,100650.94
2023-05-24T03:16:33.847Z,100643.63
2023-05-24T03:17:05.449Z,100639.75
2023-05-24T03:17:37.029Z,100636.84
2023-05-24T03:18:08.567Z,100640.34
2023-05-24T03:18:40.044Z,100644.94
2023-05-24T03:19:11.494Z,100649.03
2023-05-24T03:19:42.969Z,100644.13
2023-05-24T03:20:14.445Z,100646.59
2023-05-24T03:20:46.061Z,100642.78
2023-05-24T03:21:17.603Z,100643.81
2023-05-24T03:21:49.195Z,100649.03
2023-05-24T03:22:20.615Z,100655.53
2023-05-24T03:22:52.133Z,100647.41
2023-05-24T03:23:23.616Z,100653.34
2023-05-24T03:23:55.121Z,100643.31
2023-05-24T03:24:26.628Z,100640.03
2023-05-24T03:24:58.125Z,100644.94
2023-05-24T03:25:29.565Z,100650.38
2023-05-24T03:26:01.105Z,100657.69
2023-05-24T03:26:32.563Z,100650.94
2023-05-24T03:27:04.022Z,100652.25
2023-05-24T03:27:35.722Z,100645.75
2023-05-24T03:28:07.293Z,100647.41
2023-05-24T03:28:38.743Z,100648.72
2023-05-24T03:29:10.294Z,100646.59
2023-05-24T03:29:41.759Z,100646.59
2023-05-24T03:30:13.283Z,100653.34
2023-05-24T03:30:44.949Z,100646.28
2023-05-24T03:31:16.609Z,100646.53
2023-05-24T03:31:48.114Z,100647.34
2023-05-24T03:32:19.604Z,100644.13
2023-05-24T03:32:51.223Z,100641.97
2023-05-24T03:33:22.777Z,100643.94
2023-05-24T03:33:54.234Z,100641.16
2023-05-24T03:34:25.713Z,100649.56
2023-05-24T03:34:57.178Z,100641.72
2023-05-24T03:35:28.777Z,100642.53
2023-05-24T03:36:00.227Z,100641.47
2023-05-24T03:36:31.742Z,100642.03
2023-05-24T03:37:03.162Z,100643.94
2023-05-24T03:37:34.867Z,100637.63
2023-05-24T03:38:06.378Z,100642.22
2023-05-24T03:38:37.958Z,100643.31
2023-05-24T03:39:09.475Z,100644.75
2023-05-24T03:39:41.019Z,100652.00
2023-05-24T03:40:12.500Z,100647.09
2023-05-24T03:40:44.308Z,100646.28
2023-05-24T03:41:15.944Z,100644.63
2023-05-24T03:41:47.485Z,100646.28
2023-05-24T03:42:18.996Z,100649.72
2023-05-24T03:42:50.438Z,100647.34
2023-05-24T03:43:21.941Z,100658.84
2023-05-24T03:43:53.437Z,100651.69
2023-05-24T03:44:24.988Z,100652.84
2023-05-24T03:44:56.467Z,100658.19
2023-05-24T03:45:38.474Z,100658.69
2023-05-24T03:46:11.107Z,100657.63
2023-05-24T03:46:42.666Z,100664.69
2023-05-24T03:47:14.208Z,100657.13
2023-05-24T03:47:45.723Z,100660.09
2023-05-24T03:48:17.386Z,100663.06
2023-05-24T03:48:49.146Z,100661.75
2023-05-24T03:49:20.644Z,100661.16
2023-05-24T03:49:52.163Z,100663.94
2023-05-24T03:50:23.660Z,100662.31
2023-05-24T03:50:55.117Z,100668.00
2023-05-24T03:51:26.639Z,100665.28
2023-05-24T03:51:58.132Z,100666.59
2023-05-24T03:52:29.656Z,100668.00
2023-05-24T03:53:01.121Z,100667.41
2023-05-24T03:53:32.667Z,100670.69
2023-05-24T03:54:04.244Z,100672.09
2023-05-24T03:54:35.876Z,100669.69
2023-05-24T03:55:07.348Z,100669.75
2023-05-24T03:55:38.819Z,100671.84
2023-05-24T03:56:10.283Z,100668.38
2023-05-24T03:56:41.811Z,100667.47
2023-05-24T03:57:13.283Z,100672.34
2023-05-24T03:57:44.857Z,100670.69
2023-05-24T03:58:16.282Z,100671.28
2023-05-24T03:58:47.826Z,100672.34
2023-05-24T03:59:19.330Z,100669.63
2023-05-24T03:59:50.890Z,100673.16
2023-05-24T04:00:22.403Z,100663.63
2023-05-24T04:00:53.915Z,100669.38
2023-05-24T04:01:33.181Z,100667.47
2023-05-24T04:02:06.277Z,100669.06
2023-05-24T04:02:38.021Z,100671.84
2023-05-24T04:03:09.589Z,100671.78
2023-05-24T04:03:41.192Z,100673.91
2023-05-24T04:04:12.786Z,100672.84
2023-05-24T04:04:44.312Z,100680.16
2023-05-24T04:05:15.817Z,100673.06
2023-05-24T04:05:47.312Z,100670.59
2023-05-24T04:06:18.798Z,100673.66
2023-05-24T04:06:50.357Z,100670.34
2023-05-24T04:07:21.880Z,100668.97
2023-05-24T04:07:53.484Z,100674.50
2023-05-24T04:08:25.038Z,100672.50
2023-05-24T04:08:56.610Z,100676.63
2023-05-24T04:09:28.165Z,100675.88
2023-05-24T04:09:59.686Z,100675.31
2023-05-24T04:10:31.264Z,100676.84
2023-05-24T04:11:02.822Z,100681.06
2023-05-24T04:11:34.520Z,100677.00
2023-05-24T04:12:06.010Z,100678.03
2023-05-24T04:12:37.482Z,100674.81
2023-05-24T04:13:09.102Z,100682.94
2023-05-24T04:13:40.812Z,100681.31
2023-05-24T04:14:12.450Z,100681.56
2023-05-24T04:14:44.029Z,100681.81
2023-05-24T04:15:15.791Z,100679.91
2023-05-24T04:15:47.261Z,100683.94
2023-05-24T04:16:18.848Z,100683.72
2023-05-24T04:16:50.402Z,100683.78
2023-05-24T04:17:22.164Z,100689.19
2023-05-24T04:17:53.973Z,100690.03
2023-05-24T04:18:25.931Z,100679.97
2023-05-24T04:18:57.496Z,100683.44
2023-05-24T04:19:29.110Z,100678.34
2023-05-24T04:20:00.666Z,100678.34
2023-05-24T04:20:32.361Z,100688.13
2023-05-24T04:21:04.121Z,100685.66
2023-05-24T04:21:35.597Z,100679.41
2023-05-24T04:22:07.193Z,100691.34
2023-05-24T04:22:38.627Z,100689.19
2023-05-24T04:23:10.136Z,100685.09
2023-05-24T04:23:41.620Z,100684.84
2023-05-24T04:24:13.113Z,100695.97
2023-05-24T04:24:44.573Z,100691.34
2023-05-24T04:25:16.213Z,100693.50
2023-05-24T04:25:47.712Z,100696.13
2023-05-24T04:26:19.284Z,100690.44
2023-05-24T04:26:50.743Z,100696.13
2023-05-24T04:27:22.227Z,100692.31
2023-05-24T04:27:53.687Z,100693.16
2023-05-24T04:28:25.208Z,100693.97
2023-05-24T04:28:56.682Z,100691.84
2023-05-24T04:29:28.097Z,100695.84
2023-05-24T04:29:59.577Z,100696.13
2023-05-24T04:30:31.079Z,100687.00
2023-05-24T04:31:02.662Z,100704.59
2023-05-24T04:31:34.213Z,100692.06
2023-05-24T04:32:05.827Z,100695.84
2023-05-24T04:32:37.325Z,100696.47
2023-05-24T04:33:08.974Z,100692.41
2023-05-24T04:33:40.466Z,100692.41
2023-05-24T04:34:11.927Z,100693.16
2023-05-24T04:34:43.424Z,100693.50
2023-05-24T04:35:14.895Z,100695.19
2023-05-24T04:35:46.517Z,100693.00
2023-05-24T04:36:18.028Z,100689.13
2023-05-24T04:36:49.458Z,100694.56
2023-05-24T04:37:20.949Z,100689.72
2023-05-24T04:37:52.389Z,100696.53
2023-05-24T04:38:23.876Z,100695.44
2023-05-24T04:38:55.372Z,100694.63
2023-05-24T04:39:26.786Z,100703.34
2023-05-24T04:39:58.252Z,100698.16
2023-05-24T04:40:29.797Z,100700.38
2023-05-24T04:41:01.264Z,100704.75
2023-05-24T04:41:32.729Z,100703.84
2023-05-24T04:42:04.225Z,100699.25
2023-05-24T04:42:35.707Z,100701.72
2023-05-24T04:43:07.207Z,100707.44
2023-05-24T04:43:38.746Z,100702.59
2023-05-24T04:44:10.259Z,100707.38
2023-05-24T04:44:41.785Z,100705.50
2023-05-24T04:45:13.297Z,100707.63
2023-05-24T04:45:44.816Z,100710.16
2023-05-24T04:46:16.320Z,100704.75
2023-05-24T04:46:47.835Z,100707.13
2023-05-24T04:47:19.325Z,100704.91
2023-05-24T04:47:50.787Z,100705.25
2023-05-24T04:48:22.382Z,100706.31
2023-05-24T04:48:53.855Z,100702.72
2023-05-24T04:49:25.336Z,100700.00
2023-05-24T04:49:56.905Z,100702.72
2023-05-24T04:50:28.392Z,100706.81
2023-05-24T04:50:59.901Z,100707.38
2023-05-24T04:51:31.415Z,100708.78
2023-05-24T04:52:02.876Z,100711.81
2023-05-24T04:52:34.344Z,100700.88
2023-05-24T04:53:05.804Z,100713.38
2023-05-24T04:53:37.324Z,100709.53
2023-05-24T04:54:08.972Z,100715.28
2023-05-24T04:54:40.810Z,100710.34
2023-05-24T04:55:12.352Z,100708.72
2023-05-24T04:55:43.780Z,100706.25
2023-05-24T04:56:15.310Z,100707.31
2023-05-24T04:56:46.807Z,100706.00
2023-05-24T04:57:18.264Z,100705.44
2023-05-24T04:57:49.770Z,100706.25
2023-05-24T04:58:21.259Z,100708.13
2023-05-24T04:58:52.838Z,100700.00
2023-05-24T04:59:24.375Z,100699.91
2023-05-24T04:59:55.865Z,100705.66
2023-05-24T05:00:27.513Z,100697.75
2023-05-24T05:00:58.982Z,100698.91
2023-05-24T05:01:30.536Z,100700.56
2023-05-24T05:02:02.124Z,100701.72
2023-05-24T05:02:33.686Z,100695.78
2023-05-24T05:03:05.288Z,100696.28
2023-05-24T05:03:36.935Z,100705.50
2023-05-24T05:04:08.477Z,100708.47
2023-05-24T05:04:39.984Z,100708.47
2023-05-24T05:05:11.475Z,100710.09
2023-05-24T05:05:43.002Z,100710.34
2023-05-24T05:06:14.522Z,100715.22
2023-05-24T05:06:46.055Z,100709.53
2023-05-24T05:07:17.588Z,100717.44
2023-05-24T05:07:49.046Z,100717.50
2023-05-24T05:08:20.549Z,100714.47
2023-05-24T05:08:52.016Z,100716.34
2023-05-24T05:09:23.522Z,100710.59
2023-05-24T05:09:54.995Z,100707.13
2023-05-24T05:10:26.513Z,100713.94
2023-05-24T05:10:58.038Z,100709.78
2023-05-24T05:11:29.566Z,100710.09
2023-05-24T05:12:01.049Z,100701.72
2023-05-24T05:12:32.545Z,100709.34
2023-05-24T05:13:04.176Z,100703.84
2023-05-24T05:13:35.687Z,100702.59
2023-05-24T05:14:07.122Z,100702.84
2023-05-24T05:14:38.692Z,100712.56
2023-05-24T05:15:10.273Z,100701.72
2023-05-24T05:15:42.856Z,100703.59
2023-05-24T05:16:14.703Z,100703.34
2023-05-24T05:16:46.461Z,100698.16
2023-05-24T05:17:18.241Z,100698.41
2023-05-24T05:17:49.887Z,100703.34
2023-05-24T05:18:21.363Z,100701.72
2023-05-24T05:18:52.812Z,100703.28
2023-05-24T05:19:24.304Z,100701.63
2023-05-24T05:19:55.804Z,100704.81
2023-05-24T05:20:27.294Z,100698.75
2023-05-24T05:20:58.800Z,100697.91
2023-05-24T05:21:30.270Z,100700.13
2023-05-24T05:22:01.772Z,100703.34
2023-05-24T05:22:33.271Z,100704.91
2023-05-24T05:23:04.767Z,100693.50
2023-05-24T05:23:36.279Z,100693.25
2023-05-24T05:24:07.786Z,100695.13
2023-05-24T05:24:39.262Z,100689.13
2023-05-24T05:25:10.751Z,100694.06
2023-05-24T05:25:42.230Z,100687.00
2023-05-24T05:26:13.691Z,100689.78
2023-05-24T05:26:45.253Z,100692.47
2023-05-24T05:27:16.729Z,100692.75
2023-05-24T05:27:48.218Z,100689.19
2023-05-24T05:28:19.707Z,100695.97
2023-05-24T05:28:51.228Z,100686.75
2023-05-24T05:29:24.366Z,100685.59
2023-05-24T05:29:56.129Z,100684.53
2023-05-24T05:30:27.645Z,100687.00
2023-05-24T05:30:59.108Z,100685.34
2023-05-24T05:31:30.676Z,100687.56
2023-05-24T05:32:02.276Z,100695.72
2023-05-24T05:32:33.858Z,100694.63
2023-05-24T05:33:05.471Z,100691.59
2023-05-24T05:33:37.001Z,100696.22
2023-05-24T05:34:08.526Z,100691.84
2023-05-24T05:34:40.014Z,100696.78
2023-05-24T05:35:11.483Z,100694.38
2023-05-24T05:35:42.947Z,100695.19
2023-05-24T05:36:14.405Z,100694.38
2023-05-24T05:36:45.897Z,100690.84
2023-05-24T05:37:17.434Z,100687.56
2023-05-24T05:37:48.900Z,100692.47
2023-05-24T05:38:20.356Z,100701.72
2023-05-24T05:38:51.823Z,100700.13
2023-05-24T05:39:23.290Z,100700.38
2023-05-24T05:39:54.777Z,100693.81
2023-05-24T05:40:26.339Z,100696.28
2023-05-24T05:40:57.856Z,100699.00
2023-05-24T05:41:29.374Z,100698.16
2023-05-24T05:42:00.838Z,100703.09
2023-05-24T05:42:32.366Z,100706.31
2023-05-24T05:43:03.881Z,100701.19
2023-05-24T05:43:35.351Z,100705.81
2023-05-24T05:44:06.917Z,100698.41
2023-05-24T05:44:38.397Z,100702.78
2023-05-24T05:45:09.883Z,100703.66
2023-05-24T05:45:41.527Z,100703.91
2023-05-24T05:46:13.243Z,100702.84
2023-05-24T05:46:44.785Z,100699.31
2023-05-24T05:47:16.325Z,100699.56
2023-05-24T05:47:47.940Z,100699.88
2023-05-24T05:48:19.437Z,100701.84
2023-05-24T05:48:50.932Z,100691.16
2023-05-24T05:49:22.421Z,100694.94
2023-05-24T05:49:53.882Z,100691.66
2023-05-24T05:50:25.366Z,100685.47
2023-05-24T05:50:56.831Z,100686.28
2023-05-24T05:51:28.298Z,100693.63
2023-05-24T05:51:59.797Z,100685.72
2023-05-24T05:52:31.283Z,100686.56
2023-05-24T05:53:02.882Z,100688.50
2023-05-24T05:53:34.333Z,100682.75
2023-05-24T05:54:05.838Z,100688.50
2023-05-24T05:54:37.247Z,100686.56
2023-05-24T05:55:08.804Z,100692.88
2023-05-24T05:55:40.296Z,100688.50
2023-05-24T05:56:11.856Z,100691.53
2023-05-24T05:56:43.341Z,100696.41
2023-05-24T05:57:14.876Z,100692.28
2023-05-24T05:57:46.327Z,100693.63
2023-05-24T05:58:17.945Z,100695.91
2023-05-24T05:58:49.435Z,100697.47
2023-05-24T05:59:20.950Z,100696.97
2023-05-24T05:59:52.393Z,100690.47
2023-05-24T06:00:23.926Z,100692.34